Time;durP1;ratioP1;P1;durP2;ratioP2;P2;SDS_P1;SDS_P2;PMS_P1;PMS_P2;Temp;Humidity;BMP_temperature;BMP_pressure;BME280_temperature;BME280_humidity;BME280_pressure;Samples;Min_cycle;Max_cycle;Signal;HPM_P1;HPM_P2
2022/08/26 00:00:39;;;;;;;19.70;3.03;;;;;;;27.76;30.08;97983.78;5037459;28;20118;-76
2022/08/26 00:03:04;;;;;;;26.00;3.00;;;;;;;27.84;30.37;97995.94;5054073;28;20536;-76
2022/08/26 00:05:30;;;;;;;26.13;3.08;;;;;;;27.78;29.65;97993.22;5037572;28;20033;-78
2022/08/26 00:07:56;;;;;;;26.38;3.47;;;;;;;27.81;30.09;98002.59;5053985;28;20028;-77
2022/08/26 00:10:21;;;;;;;18.50;3.03;;;;;;;27.83;29.94;98000.47;5054080;28;20033;-77
2022/08/26 00:12:47;;;;;;;21.38;3.10;;;;;;;27.80;30.05;98007.16;5053907;28;20053;-77
2022/08/26 00:15:13;;;;;;;24.65;3.38;;;;;;;27.78;29.71;98011.16;5053801;28;20056;-78
2022/08/26 00:17:39;;;;;;;18.23;3.25;;;;;;;27.81;30.11;98016.00;5053706;28;20029;-77
2022/08/26 00:20:06;;;;;;;26.63;3.47;;;;;;;27.77;30.22;98021.06;5053505;28;20036;-77
2022/08/26 00:22:32;;;;;;;25.20;3.22;;;;;;;27.76;30.32;98022.13;5053457;28;20092;-88
2022/08/26 00:24:57;;;;;;;22.00;2.95;;;;;;;27.72;30.45;98020.16;5037440;28;20447;-80
2022/08/26 00:27:23;;;;;;;31.88;3.28;;;;;;;27.76;30.44;98029.34;5037105;28;20153;-80
2022/08/26 00:29:48;;;;;;;21.85;2.85;;;;;;;27.76;30.38;98024.78;5053330;28;20024;-80
2022/08/26 00:32:14;;;;;;;25.27;3.47;;;;;;;27.76;30.61;98022.13;5053658;28;20546;-79
2022/08/26 00:34:40;;;;;;;30.27;3.88;;;;;;;27.78;30.58;98029.91;5037566;28;20053;-79
2022/08/26 00:37:05;;;;;;;30.45;3.72;;;;;;;27.71;30.96;98023.94;5053591;28;20400;-78
2022/08/26 00:39:31;;;;;;;31.75;3.28;;;;;;;27.66;30.46;98024.66;5053690;28;20060;-79
2022/08/26 00:41:56;;;;;;;24.70;3.25;;;;;;;27.71;30.63;98030.09;5020350;28;20032;-79
2022/08/26 00:44:22;;;;;;;18.45;3.10;;;;;;;27.69;30.86;98037.56;5052964;28;20029;-79
2022/08/26 00:46:49;;;;;;;27.98;3.72;;;;;;;27.67;31.24;98025.47;5037150;28;20094;-78
2022/08/26 00:49:18;;;;;;;23.27;3.03;;;;;;;27.68;30.66;98035.94;5037152;28;20063;-79
2022/08/26 00:51:51;;;;;;;23.35;3.00;;;;;;;27.64;30.73;98020.59;5054523;28;20032;-79
2022/08/26 00:54:18;;;;;;;18.75;2.92;;;;;;;27.66;31.24;98021.16;5020944;28;20369;-79
2022/08/26 00:56:49;;;;;;;18.90;2.85;;;;;;;27.61;30.62;98024.56;5036748;28;20043;-79
2022/08/26 00:59:14;;;;;;;33.95;3.75;;;;;;;27.58;31.03;98019.72;5036990;28;20025;-79
2022/08/26 01:01:41;;;;;;;27.50;3.30;;;;;;;27.54;30.49;98015.91;5036907;28;20452;-79
2022/08/26 01:04:07;;;;;;;22.95;3.28;;;;;;;27.52;30.84;98009.97;5019515;28;20044;-78
2022/08/26 01:06:32;;;;;;;29.50;3.45;;;;;;;27.43;30.28;98002.31;5036489;28;20029;-78
2022/08/26 01:08:57;;;;;;;26.33;2.92;;;;;;;27.45;30.27;98010.13;5036417;28;20484;-78
2022/08/26 01:11:23;;;;;;;26.77;3.65;;;;;;;27.31;30.48;98009.66;5036224;28;20091;-78
2022/08/26 01:13:52;;;;;;;22.17;3.00;;;;;;;27.29;30.61;98005.56;5035793;28;20060;-78
2022/08/26 01:16:17;;;;;;;18.02;2.65;;;;;;;27.25;30.11;98013.28;5020059;28;20031;-79
2022/08/26 01:18:43;;;;;;;22.42;2.88;;;;;;;27.20;30.66;98002.44;5035788;28;20045;-79
2022/08/26 01:21:11;;;;;;;21.55;2.83;;;;;;;27.14;30.68;97996.22;5019521;28;20068;-78
2022/08/26 01:23:40;;;;;;;;;;;;;;;27.17;30.86;97998.41;5052776;28;20033;-79
2022/08/26 01:26:12;;;;;;;19.90;2.60;;;;;;;27.12;30.75;97990.28;5052577;28;19981;-78
2022/08/26 01:28:37;;;;;;;15.52;2.92;;;;;;;27.02;30.83;97980.19;5036466;28;20091;-79
2022/08/26 01:31:04;;;;;;;27.48;3.03;;;;;;;27.03;30.89;97991.75;5019325;28;20539;-78
2022/08/26 01:33:36;;;;;;;20.20;2.40;;;;;;;27.00;31.55;97978.84;5035874;28;20121;-78
2022/08/26 01:36:02;;;;;;;20.92;3.03;;;;;;;27.03;31.63;97975.69;5036577;28;20044;-78
2022/08/26 01:38:28;;;;;;;27.20;2.42;;;;;;;27.00;31.58;97976.16;5051776;28;20021;-77
2022/08/26 01:40:53;;;;;;;27.08;2.65;;;;;;;27.00;32.20;97976.16;5052329;28;20037;-78
2022/08/26 01:43:22;;;;;;;16.00;2.60;;;;;;;27.01;32.13;97978.59;5051489;28;20048;-78
2022/08/26 01:45:48;;;;;;;24.45;2.67;;;;;;;27.01;31.04;97973.25;5035532;28;20032;-78
2022/08/26 01:48:16;;;;;;;30.98;2.78;;;;;;;26.99;31.84;97972.66;5052238;28;20047;-78
2022/08/26 01:50:42;;;;;;;20.00;2.65;;;;;;;27.00;31.35;97970.81;5035345;28;20033;-78
2022/08/26 01:53:09;;;;;;;21.25;2.97;;;;;;;26.91;31.92;97962.34;5051950;28;20075;-76
2022/08/26 01:55:36;;;;;;;15.27;2.73;;;;;;;26.96;31.71;97959.75;5051565;28;20044;-88
2022/08/26 01:58:04;;;;;;;21.83;2.58;;;;;;;27.01;31.50;97964.38;5034313;28;20041;-86
2022/08/26 02:00:30;;;;;;;18.02;2.85;;;;;;;26.95;31.57;97966.16;5051898;28;20110;-87
2022/08/26 02:03:15;;;;;;;16.33;2.30;;;;;;;26.96;32.10;97965.09;5051845;28;20495;-87
2022/08/26 02:05:45;;;;;;;20.13;2.85;;;;;;;26.93;31.98;97959.44;5051922;28;20076;-86
2022/08/26 02:08:10;;;;;;;16.27;2.78;;;;;;;26.97;31.74;97973.97;5035282;28;20033;-87
2022/08/26 02:10:36;;;;;;;13.98;2.40;;;;;;;26.94;31.78;97967.22;5051385;28;20492;-85
2022/08/26 02:13:01;;;;;;;16.58;2.30;;;;;;;26.85;32.07;97958.78;5050595;28;20468;-89
2022/08/26 02:15:27;;;;;;;19.55;3.03;;;;;;;26.79;32.21;97949.03;5051496;28;20502;-86
2022/08/26 02:17:53;;;;;;;19.67;2.30;;;;;;;26.88;32.05;97965.50;5051345;28;20044;-88
2022/08/26 02:20:19;;;;;;;12.23;2.85;;;;;;;26.84;32.56;97962.50;5051975;28;20404;-86
2022/08/26 02:22:45;;;;;;;19.63;2.17;;;;;;;26.86;32.10;97962.25;5051483;28;20032;-85
2022/08/26 02:25:15;;;;;;;17.13;2.17;;;;;;;26.81;32.70;97960.31;5034911;28;20025;-88
2022/08/26 02:27:40;;;;;;;19.45;2.35;;;;;;;26.76;32.39;97965.59;5051280;28;20083;-87
2022/08/26 02:30:10;;;;;;;17.63;2.45;;;;;;;26.82;33.08;97964.63;5034732;28;20040;-86
2022/08/26 02:32:36;;;;;;;12.20;2.20;;;;;;;26.82;33.35;97964.63;5051065;28;20075;-87
2022/08/26 02:35:01;;;;;;;16.48;2.05;;;;;;;26.78;32.81;97954.63;5034742;28;20060;-89
2022/08/26 02:37:28;;;;;;;16.40;1.92;;;;;;;26.78;33.57;97955.44;5034707;28;20073;-89
2022/08/26 02:39:54;;;;;;;10.02;2.08;;;;;;;26.86;33.20;97957.72;5051425;28;20039;-87
2022/08/26 02:42:19;;;;;;;15.93;2.42;;;;;;;26.78;33.14;97958.09;5051065;28;20119;-88
2022/08/26 02:44:45;;;;;;;17.60;2.13;;;;;;;26.71;33.59;97947.56;5051447;28;20033;-87
2022/08/26 02:47:12;;;;;;;14.43;2.80;;;;;;;26.84;33.53;97957.16;5050865;28;20064;-87
2022/08/26 02:49:38;;;;;;;13.70;2.33;;;;;;;26.86;33.55;97948.88;5034464;28;20458;-87
2022/08/26 02:52:03;;;;;;;23.42;2.30;;;;;;;26.80;33.14;97937.25;5050991;28;20033;-87
2022/08/26 02:54:29;;;;;;;24.92;2.22;;;;;;;26.88;33.53;97958.31;5051240;28;20033;-88
2022/08/26 02:56:55;;;;;;;22.75;2.10;;;;;;;26.84;33.20;97954.47;5034107;28;20040;-87
2022/08/26 02:59:20;;;;;;;9.63;1.73;;;;;;;26.82;33.21;97942.38;5050782;28;20024;-86
2022/08/26 03:01:48;;;;;;;19.50;2.00;;;;;;;26.72;33.17;97943.00;5017749;28;20045;-85
2022/08/26 03:04:14;;;;;;;27.25;2.60;;;;;;;26.65;33.31;97953.06;5035143;28;20631;-85
2022/08/26 03:06:40;;;;;;;15.20;2.30;;;;;;;26.51;33.26;97931.09;5051596;28;20044;-85
2022/08/26 03:09:05;;;;;;;22.05;2.25;;;;;;;26.62;33.76;97954.31;5034613;28;20052;-86
2022/08/26 03:11:31;;;;;;;24.25;2.40;;;;;;;26.64;33.62;97951.41;5034145;28;20040;-85
2022/08/26 03:13:57;;;;;;;16.23;2.63;;;;;;;26.67;33.17;97962.47;5034186;28;20053;-86
2022/08/26 03:16:23;;;;;;;16.77;2.42;;;;;;;26.66;33.74;97950.16;5034447;28;20029;-86
2022/08/26 03:18:49;;;;;;;20.10;2.65;;;;;;;26.65;33.45;97953.06;5017617;28;20041;-86
2022/08/26 03:21:16;;;;;;;15.15;2.42;;;;;;;26.70;33.49;97948.59;5051239;28;20033;-86
2022/08/26 03:23:42;;;;;;;15.65;2.88;;;;;;;26.58;33.13;97949.69;5051588;28;20032;-87
2022/08/26 03:26:08;;;;;;;11.85;2.35;;;;;;;26.63;33.40;97973.88;5038200;28;20033;-88
2022/08/26 03:28:33;;;;;;;21.63;2.63;;;;;;;26.57;33.02;97946.22;5039534;28;20075;-85
2022/08/26 03:30:59;;;;;;;19.50;2.55;;;;;;;26.64;33.19;97938.81;5056145;28;20427;-88
2022/08/26 03:33:24;;;;;;;20.30;2.88;;;;;;;26.66;32.56;97971.56;5057378;28;20036;-89
2022/08/26 03:35:51;;;;;;;18.60;2.70;;;;;;;26.68;32.59;97957.94;5056667;28;20075;-90
2022/08/26 03:38:18;;;;;;;16.20;2.70;;;;;;;26.69;32.51;97971.09;5055539;28;20021;-87
2022/08/26 03:40:44;;;;;;;16.38;2.38;;;;;;;26.73;32.90;97971.41;5038967;28;20033;-88
2022/08/26 03:43:10;;;;;;;14.73;2.58;;;;;;;26.73;32.37;97965.25;5055530;28;20025;-86
2022/08/26 03:45:37;;;;;;;15.88;2.47;;;;;;;26.81;32.52;97978.25;5040178;28;20017;-88
2022/08/26 03:48:03;;;;;;;16.65;3.03;;;;;;;26.78;32.28;97974.16;5056215;28;20033;-87
2022/08/26 03:50:29;;;;;;;13.60;2.67;;;;;;;26.79;32.51;97986.50;5039407;28;20037;-89
2022/08/26 03:52:55;;;;;;;17.40;2.60;;;;;;;26.73;32.50;97987.47;5057126;28;20029;-87
2022/08/26 03:55:23;;;;;;;20.42;2.30;;;;;;;26.80;32.52;97987.31;5055796;28;20378;-86
2022/08/26 03:57:52;;;;;;;;;;;;;;;26.87;32.81;97993.34;5056298;28;20036;-89
2022/08/26 04:00:18;;;;;;;9.80;2.53;;;;;;;26.83;32.45;97986.84;5056400;28;19939;-88
2022/08/26 04:02:44;;;;;;;16.88;2.28;;;;;;;26.91;32.38;98002.50;5022766;28;20488;-88
2022/08/26 04:05:12;;;;;;;16.83;2.58;;;;;;;26.88;32.67;97992.28;5040870;28;20036;-88
2022/08/26 04:07:38;;;;;;;24.20;2.42;;;;;;;26.90;32.57;97992.88;5022904;28;20044;-89
2022/08/26 04:10:05;;;;;;;19.35;2.78;;;;;;;26.94;31.89;97988.63;5022361;28;20070;-88
2022/08/26 04:12:30;;;;;;;20.63;2.97;;;;;;;27.02;32.65;97998.94;5055938;28;20155;-90
2022/08/26 04:14:56;;;;;;;17.50;2.78;;;;;;;27.03;32.40;98000.59;5022935;28;20584;-88
2022/08/26 04:17:24;;;;;;;15.00;2.28;;;;;;;27.07;33.45;97999.06;5054754;28;20116;-86
2022/08/26 04:19:51;;;;;;;22.70;3.45;;;;;;;27.08;33.05;97999.88;5061457;28;20040;-92
2022/08/26 04:22:17;;;;;;;22.88;3.03;;;;;;;27.14;33.07;98000.78;5043025;28;20028;-87
2022/08/26 04:24:43;;;;;;;23.35;3.42;;;;;;;27.22;33.13;98003.84;5054036;28;20374;-84
2022/08/26 04:27:09;;;;;;;19.83;3.22;;;;;;;27.30;32.73;98009.88;5038146;28;20052;-86
2022/08/26 04:29:34;;;;;;;33.15;2.58;;;;;;;27.38;33.35;98012.16;5038305;28;20029;-89
2022/08/26 04:32:00;;;;;;;21.90;2.40;;;;;;;27.30;31.88;98007.19;5055759;28;20025;-92
2022/08/26 04:34:26;;;;;;;18.05;2.72;;;;;;;27.36;32.49;98011.59;5057126;28;20036;-86
2022/08/26 04:36:54;;;;;;;24.45;2.65;;;;;;;27.40;32.57;98015.41;5054915;28;20021;-86
2022/08/26 04:39:21;;;;;;;;;;;;;;;27.39;33.17;98008.41;5057957;28;20021;-88
2022/08/26 04:41:47;;;;;;;24.27;2.35;;;;;;;27.42;34.28;98030.19;5058692;28;19908;-86
2022/08/26 04:44:13;;;;;;;20.50;2.58;;;;;;;27.39;34.27;98036.03;5054516;28;20415;-79
2022/08/26 04:46:39;;;;;;;18.13;3.03;;;;;;;27.36;33.26;98035.72;5053602;28;20094;-82
2022/08/26 04:49:07;;;;;;;17.35;2.75;;;;;;;27.39;33.25;98035.22;5055155;28;20400;-84
2022/08/26 04:51:33;;;;;;;21.23;3.05;;;;;;;27.43;33.06;98031.81;5054593;28;20037;-88
2022/08/26 04:53:59;;;;;;;18.73;2.95;;;;;;;27.51;32.60;98040.50;5038187;28;20029;-85
2022/08/26 04:56:32;;;;;;;22.67;2.65;;;;;;;27.61;32.94;98038.81;5053057;28;20090;-73
2022/08/26 04:58:58;;;;;;;21.27;2.60;;;;;;;27.68;32.69;98035.94;5053100;28;20029;-73
2022/08/26 05:01:25;;;;;;;23.63;2.38;;;;;;;27.78;32.86;98043.31;5035320;28;20633;-74
2022/08/26 05:03:50;;;;;;;24.13;2.65;;;;;;;27.82;32.85;98044.47;5035044;28;20056;-74
2022/08/26 05:06:16;;;;;;;14.18;2.50;;;;;;;27.86;32.95;98040.22;5051835;28;20299;-74
2022/08/26 05:08:41;;;;;;;19.48;2.60;;;;;;;27.91;32.78;98034.13;5034025;28;20534;-76
2022/08/26 05:11:07;;;;;;;10.77;2.45;;;;;;;27.89;32.80;98045.09;5051920;28;20564;-74
2022/08/26 05:13:33;;;;;;;14.00;2.25;;;;;;;27.96;32.71;98048.44;5051348;28;20049;-75
2022/08/26 05:16:03;;;;;;;13.10;2.47;;;;;;;28.00;32.87;98053.31;5034466;28;20040;-74
2022/08/26 05:18:30;;;;;;;12.55;1.85;;;;;;;28.00;32.82;98048.75;5036277;28;20040;-75
2022/08/26 05:20:56;;;;;;;14.90;2.58;;;;;;;28.09;32.67;98052.66;5035928;28;20098;-75
2022/08/26 05:23:22;;;;;;;7.72;2.38;;;;;;;28.16;32.29;98055.16;5052137;28;20095;-74
2022/08/26 05:25:48;;;;;;;13.82;2.15;;;;;;;28.25;32.47;98061.72;5052594;28;20044;-74
2022/08/26 05:28:15;;;;;;;14.98;2.30;;;;;;;28.31;32.16;98060.72;5052232;28;20477;-74
2022/08/26 05:30:40;;;;;;;17.25;2.17;;;;;;;28.36;31.94;98062.66;5052319;28;20033;-73
2022/08/26 05:33:07;;;;;;;15.07;2.65;;;;;;;28.50;31.88;98068.47;5052224;28;20049;-75
2022/08/26 05:35:33;;;;;;;13.63;2.47;;;;;;;28.61;31.52;98067.56;5035328;28;20028;-72
2022/08/26 05:38:02;;;;;;;8.13;2.05;;;;;;;28.76;31.28;98066.09;5050355;28;20472;-74
2022/08/26 05:40:28;;;;;;;9.15;2.28;;;;;;;28.99;33.09;98063.13;5018619;28;20025;-77
2022/08/26 05:42:54;;;;;;;22.52;2.90;;;;;;;29.29;32.42;98063.69;5051382;28;20024;-71
2022/08/26 05:45:22;;;;;;;15.18;2.33;;;;;;;29.65;32.03;98075.56;5017736;28;20041;-71
2022/08/26 05:47:55;;;;;;;16.52;2.40;;;;;;;29.87;30.83;98074.66;5056862;28;20107;-79
2022/08/26 05:50:21;;;;;;;12.95;2.45;;;;;;;30.08;30.79;98081.00;5053522;28;20048;-78
2022/08/26 05:52:50;;;;;;;12.65;2.38;;;;;;;30.25;30.44;98092.41;5054550;28;20031;-74
2022/08/26 05:55:16;;;;;;;22.00;2.75;;;;;;;30.47;29.63;98099.50;5033557;28;20074;-75
2022/08/26 05:57:43;;;;;;;18.20;2.50;;;;;;;30.82;29.23;98096.16;5049679;28;20021;-75
2022/08/26 06:00:09;;;;;;;14.85;2.20;;;;;;;31.24;28.27;98097.06;5050062;28;20048;-75
2022/08/26 06:02:34;;;;;;;17.33;2.67;;;;;;;31.17;28.91;98097.34;5032967;28;20033;-78
2022/08/26 06:05:00;;;;;;;15.95;2.45;;;;;;;31.25;28.87;98103.28;5032936;28;20151;-75
2022/08/26 06:08:09;;;;;;;12.95;2.40;;;;;;;31.38;28.78;98098.16;5030394;28;20057;-74
2022/08/26 06:10:12;;;;;;;15.65;2.55;;;;;;;32.01;27.50;98099.78;5034020;28;20029;-75
2022/08/26 06:12:38;;;;;;;17.08;2.42;;;;;;;32.64;26.10;98115.59;5015986;28;20098;-75
2022/08/26 06:15:04;;;;;;;17.95;2.55;;;;;;;32.74;26.20;98119.34;5049410;28;20028;-74
2022/08/26 06:17:30;;;;;;;19.23;2.67;;;;;;;33.06;26.01;98108.06;5049136;28;20024;-74
2022/08/26 06:19:55;;;;;;;21.45;2.67;;;;;;;33.82;24.89;98118.66;5032889;28;20028;-75
2022/08/26 06:27:49;;;;;;;13.55;2.53;;;;;;;33.93;25.18;98117.47;5048261;28;20475;-73
2022/08/26 06:30:15;;;;;;;13.45;2.70;;;;;;;33.98;25.42;98117.41;5015733;28;20037;-74
2022/08/26 06:32:40;;;;;;;13.50;2.28;;;;;;;33.98;25.25;98112.00;5049097;28;20037;-79
2022/08/26 06:35:06;;;;;;;22.20;2.65;;;;;;;34.01;25.00;98122.28;5049170;28;20031;-75
2022/08/26 06:37:32;;;;;;;16.65;2.70;;;;;;;33.95;25.00;98120.69;5049272;28;20056;-74
2022/08/26 06:39:57;;;;;;;20.80;2.80;;;;;;;33.99;24.94;98124.47;5048915;28;20047;-73
2022/08/26 06:42:23;;;;;;;12.15;2.60;;;;;;;34.20;25.48;98135.09;5015797;28;20056;-75
2022/08/26 06:44:48;;;;;;;15.63;2.53;;;;;;;34.24;24.86;98130.75;5031623;28;20032;-74
2022/08/26 06:47:14;;;;;;;14.93;2.30;;;;;;;34.54;24.69;98129.59;5015854;28;20036;-74
2022/08/26 06:49:39;;;;;;;10.60;2.33;;;;;;;34.65;24.15;98134.88;5048846;28;20032;-74
2022/08/26 06:52:05;;;;;;;18.27;2.65;;;;;;;34.64;24.44;98128.66;5050170;28;20055;-74
2022/08/26 06:54:30;;;;;;;21.05;3.17;;;;;;;34.99;23.80;98137.47;5048893;28;20064;-73
2022/08/26 06:56:56;;;;;;;15.15;2.42;;;;;;;35.38;23.63;98130.19;5050410;28;20029;-72
2022/08/26 06:59:21;;;;;;;13.52;2.30;;;;;;;35.55;23.60;98133.16;5049566;28;20040;-74
2022/08/26 07:01:47;;;;;;;15.55;2.70;;;;;;;35.92;23.04;98130.69;5033165;28;20033;-75
2022/08/26 07:04:14;;;;;;;14.43;2.10;;;;;;;36.45;22.53;98141.09;5049981;28;20112;-74
2022/08/26 07:06:40;;;;;;;16.38;2.53;;;;;;;36.39;22.51;98136.91;5033412;28;20044;-76
2022/08/26 07:09:06;;;;;;;11.48;1.90;;;;;;;36.14;22.55;98144.38;5050164;28;20480;-74
2022/08/26 07:11:32;;;;;;;12.45;2.10;;;;;;;36.19;22.77;98146.22;5049690;28;20028;-72
2022/08/26 07:13:59;;;;;;;16.55;2.45;;;;;;;35.81;22.41;98136.25;5049322;28;20080;-73
2022/08/26 07:16:26;;;;;;;14.02;2.78;;;;;;;35.44;23.41;98153.38;5047283;28;20419;-73
2022/08/26 07:18:52;;;;;;;15.75;2.72;;;;;;;35.20;23.94;98158.88;5050115;28;20044;-72
2022/08/26 07:21:18;;;;;;;18.10;3.28;;;;;;;34.92;23.93;98156.81;5049487;28;20035;-71
2022/08/26 07:23:44;;;;;;;15.30;3.13;;;;;;;34.72;24.16;98157.03;5049718;28;20029;-71
2022/08/26 07:26:11;;;;;;;17.20;2.70;;;;;;;34.58;24.61;98167.75;5033355;28;20037;-71
2022/08/26 07:28:37;;;;;;;;;;;;;;;34.41;24.72;98174.44;5033504;28;20403;-71
2022/08/26 07:31:09;;;;;;;12.93;3.20;;;;;;;34.25;25.07;98176.53;5033369;28;19915;-72
2022/08/26 07:33:36;;;;;;;15.07;3.15;;;;;;;34.18;25.37;98167.88;5033108;28;20032;-70
2022/08/26 07:36:02;;;;;;;16.48;3.17;;;;;;;34.17;25.30;98173.56;5033510;28;20025;-71
2022/08/26 07:38:27;;;;;;;13.18;3.03;;;;;;;34.18;25.37;98167.88;5032680;28;20040;-71
2022/08/26 07:40:53;;;;;;;12.38;3.53;;;;;;;34.22;25.31;98168.09;5049746;28;20036;-70
2022/08/26 07:43:19;;;;;;;9.00;3.15;;;;;;;34.35;25.42;98164.75;5049088;28;20404;-73
2022/08/26 07:45:44;;;;;;;14.90;3.08;;;;;;;34.34;25.42;98162.34;5033256;28;20033;-70
2022/08/26 07:48:10;;;;;;;16.98;3.38;;;;;;;34.33;25.54;98156.13;5049278;28;20033;-70
2022/08/26 07:50:35;;;;;;;19.20;3.90;;;;;;;34.62;25.00;98157.97;5033114;28;20452;-71
2022/08/26 07:53:01;;;;;;;10.38;2.90;;;;;;;34.60;25.21;98157.44;5033092;28;20025;-76
2022/08/26 07:55:28;;;;;;;9.18;2.97;;;;;;;34.53;24.45;98160.50;5016482;28;20065;-72
2022/08/26 07:57:53;;;;;;;15.13;2.97;;;;;;;34.53;25.03;98165.91;5016638;28;20052;-71
2022/08/26 08:00:19;;;;;;;11.82;2.45;;;;;;;34.59;25.07;98169.38;5049371;28;20080;-71
2022/08/26 08:02:45;;;;;;;11.50;2.97;;;;;;;34.64;24.76;98166.59;5033028;28;20484;-71
2022/08/26 08:05:12;;;;;;;12.95;2.90;;;;;;;34.68;25.01;98170.38;5032464;28;20041;-70
2022/08/26 08:07:37;;;;;;;13.50;3.10;;;;;;;34.59;24.70;98162.06;5033120;28;20115;-74
2022/08/26 08:10:03;;;;;;;16.10;2.65;;;;;;;34.61;24.54;98173.41;5033786;28;20397;-76
2022/08/26 08:12:29;;;;;;;14.45;2.67;;;;;;;34.60;24.06;98168.28;5053026;28;20481;-75
2022/08/26 08:14:54;;;;;;;18.58;2.88;;;;;;;34.52;24.12;98168.91;5019980;28;20083;-74
2022/08/26 08:17:20;;;;;;;14.20;2.58;;;;;;;34.41;24.30;98158.19;5055717;28;20040;-76
2022/08/26 08:19:45;;;;;;;16.08;2.90;;;;;;;34.39;24.32;98163.06;5039861;28;20056;-74
2022/08/26 08:22:11;;;;;;;12.85;2.47;;;;;;;34.33;23.75;98160.72;5036564;28;20033;-74
2022/08/26 08:24:37;;;;;;;22.42;2.72;;;;;;;34.23;23.83;98167.06;5037475;28;20028;-84
2022/08/26 08:27:02;;;;;;;11.73;2.50;;;;;;;34.17;23.91;98173.56;5052707;28;20029;-87
2022/08/26 08:29:30;;;;;;;12.13;2.40;;;;;;;34.04;23.87;98166.94;5020693;28;20152;-79
2022/08/26 08:31:56;;;;;;;19.35;2.80;;;;;;;33.95;23.53;98157.81;5052284;28;20072;-83
2022/08/26 08:34:22;;;;;;;15.32;3.03;;;;;;;33.92;23.78;98159.16;5019970;28;20060;-86
2022/08/26 08:36:49;;;;;;;12.27;2.70;;;;;;;33.91;23.39;98165.69;5019448;28;20029;-86
2022/08/26 08:39:17;;;;;;;13.32;2.63;;;;;;;33.77;23.74;98173.66;5054904;28;20040;-90
2022/08/26 08:42:19;;;;;;;15.43;2.88;;;;;;;33.60;24.05;98160.47;5017489;28;20037;-85
2022/08/26 08:44:47;;;;;;;14.90;3.20;;;;;;;33.60;23.97;98162.38;5050425;28;20032;-82
2022/08/26 08:47:22;;;;;;;17.83;3.17;;;;;;;33.52;24.00;98166.50;5052090;28;20079;-83
2022/08/26 08:49:48;;;;;;;16.30;3.10;;;;;;;33.33;24.17;98161.75;5036299;28;20032;-82
2022/08/26 08:52:34;;;;;;;13.70;3.28;;;;;;;33.16;24.65;98154.00;5035620;28;20033;-82
2022/08/26 08:55:00;;;;;;;18.00;3.22;;;;;;;32.99;24.95;98153.56;5036232;28;20060;-82
2022/08/26 08:57:41;;;;;;;24.92;3.55;;;;;;;32.87;25.19;98153.06;5035673;28;20029;-82
2022/08/26 09:00:16;;;;;;;14.55;2.90;;;;;;;32.80;25.00;98148.75;5052571;28;20610;-81
2022/08/26 09:02:45;;;;;;;18.15;3.03;;;;;;;32.79;25.04;98152.53;5035653;28;20021;-77
2022/08/26 09:05:30;;;;;;;18.60;3.88;;;;;;;32.78;25.91;98152.81;5033958;28;20029;-80
2022/08/26 09:08:21;;;;;;;15.38;2.88;;;;;;;32.71;26.05;98160.44;5049915;28;20503;-76
2022/08/26 09:10:53;;;;;;;15.23;3.30;;;;;;;32.59;26.16;98169.63;5048782;28;20126;-76
2022/08/26 09:13:19;;;;;;;13.73;3.42;;;;;;;32.55;26.35;98179.34;5034271;28;20546;-77
2022/08/26 09:15:57;;;;;;;20.48;3.85;;;;;;;32.51;26.42;98180.97;5040963;28;20036;-82
2022/08/26 09:18:38;;;;;;;21.23;3.40;;;;;;;32.49;26.43;98174.25;5035987;28;20056;-87
2022/08/26 09:21:09;;;;;;;11.45;2.72;;;;;;;32.49;26.49;98164.25;5019986;28;20033;-90
2022/08/26 09:23:36;;;;;;;15.98;2.90;;;;;;;32.57;26.33;98152.88;5052115;28;20067;-87
2022/08/26 09:26:13;;;;;;;23.95;3.97;;;;;;;32.91;25.77;98156.81;5053668;28;20485;-80
2022/08/26 09:28:46;;;;;;;15.85;2.88;;;;;;;33.15;25.12;98148.88;5049845;28;20058;-80
2022/08/26 09:31:35;;;;;;;20.50;3.28;;;;;;;33.49;25.06;98148.91;5033777;28;20021;-79
2022/08/26 09:34:15;;;;;;;18.95;3.28;;;;;;;33.78;24.86;98148.22;5027797;28;20043;-78
2022/08/26 09:36:41;;;;;;;17.30;3.20;;;;;;;34.03;24.42;98140.94;5028563;28;20068;-77
2022/08/26 09:39:27;;;;;;;14.77;2.97;;;;;;;34.27;24.10;98134.78;5026658;28;20088;-76
2022/08/26 09:42:19;;;;;;;14.38;2.80;;;;;;;34.54;23.90;98136.94;5010947;28;20017;-78
2022/08/26 09:44:55;;;;;;;15.77;3.00;;;;;;;34.73;23.80;98131.56;4994972;28;20026;-78
2022/08/26 09:47:51;;;;;;;19.70;3.22;;;;;;;34.90;23.25;98136.50;5012226;28;20029;-77
2022/08/26 09:50:37;;;;;;;21.17;3.30;;;;;;;34.88;23.25;98139.50;4937882;29;20072;-79
2022/08/26 09:53:05;;;;;;;17.48;3.20;;;;;;;34.78;23.79;98137.72;4941900;29;20334;-77
2022/08/26 09:55:31;;;;;;;23.23;2.90;;;;;;;34.66;23.37;98137.31;4949746;29;20075;-79
2022/08/26 09:57:56;;;;;;;20.20;3.15;;;;;;;34.54;23.62;98135.03;4902701;29;20138;-79
2022/08/26 10:00:32;;;;;;;16.30;3.10;;;;;;;34.41;23.41;98144.66;4934630;29;20063;-81
2022/08/26 10:03:09;;;;;;;13.90;2.65;;;;;;;34.26;23.74;98147.53;4933157;29;20023;-82
2022/08/26 10:05:43;;;;;;;23.00;3.35;;;;;;;34.05;23.92;98123.31;4956186;28;20093;-81
2022/08/26 10:08:25;;;;;;;21.30;3.08;;;;;;;34.02;24.42;98140.13;4923981;29;20057;-79
2022/08/26 10:10:51;;;;;;;15.55;3.00;;;;;;;33.91;24.08;98137.81;4943088;28;20671;-78
2022/08/26 10:13:22;;;;;;;13.75;3.08;;;;;;;33.84;24.64;98132.72;4921445;28;20058;-78
2022/08/26 10:15:54;;;;;;;18.13;3.10;;;;;;;33.79;24.27;98121.94;4943983;28;20035;-78
2022/08/26 10:18:36;;;;;;;18.40;3.58;;;;;;;33.72;24.74;98125.78;4969780;28;20572;-79
2022/08/26 10:21:14;;;;;;;20.95;3.30;;;;;;;33.72;25.01;98122.28;4937772;28;20493;-78
2022/08/26 10:23:42;;;;;;;18.45;3.13;;;;;;;33.69;24.81;98122.81;4910250;29;20474;-77
2022/08/26 10:26:16;;;;;;;19.45;3.05;;;;;;;33.73;24.79;98121.16;4952973;28;20043;-73
2022/08/26 10:28:52;;;;;;;17.10;3.22;;;;;;;33.74;24.78;98119.28;4999831;28;20565;-74
2022/08/26 10:31:25;;;;;;;28.02;3.63;;;;;;;33.78;24.75;98123.03;5014722;28;20124;-73
2022/08/26 10:33:50;;;;;;;18.83;3.03;;;;;;;33.79;24.80;98121.94;5031023;28;20037;-73
2022/08/26 10:39:03;;;;;;;13.48;3.15;;;;;;;33.79;24.41;98119.25;5025467;28;20561;-73
2022/08/26 10:41:31;;;;;;;16.13;2.95;;;;;;;33.71;24.48;98107.13;5034709;28;20037;-73
2022/08/26 10:43:58;;;;;;;22.00;3.40;;;;;;;33.76;25.10;98109.78;5050915;28;20035;-72
2022/08/26 10:46:27;;;;;;;18.38;3.20;;;;;;;33.73;24.94;98107.63;5034321;28;20032;-73
2022/08/26 10:49:07;;;;;;;18.27;3.50;;;;;;;33.71;24.90;98112.53;5051338;28;20365;-73
2022/08/26 10:51:37;;;;;;;19.65;3.53;;;;;;;33.67;25.09;98108.78;5051214;28;20039;-73
2022/08/26 10:54:21;;;;;;;14.70;3.00;;;;;;;33.57;25.02;98108.84;5051144;28;20059;-74
2022/08/26 10:57:00;;;;;;;13.63;3.47;;;;;;;33.49;25.29;98112.97;5052158;28;20029;-72
2022/08/26 10:59:47;;;;;;;12.60;3.03;;;;;;;33.38;25.90;98125.75;5034184;28;20472;-74
2022/08/26 11:02:38;;;;;;;14.32;2.97;;;;;;;33.24;25.91;98136.41;5051182;28;20028;-73
2022/08/26 11:05:13;;;;;;;18.08;3.00;;;;;;;33.12;25.95;98135.91;5030144;28;20218;-72
2022/08/26 11:07:42;;;;;;;22.60;3.13;;;;;;;33.00;26.24;98139.75;4998561;28;20428;-73
2022/08/26 11:10:08;;;;;;;20.30;2.83;;;;;;;32.93;26.68;98150.06;5013532;28;20037;-73
2022/08/26 11:12:34;;;;;;;12.57;2.83;;;;;;;32.83;26.40;98147.41;5013420;28;20135;-72
2022/08/26 11:15:03;;;;;;;16.58;3.10;;;;;;;32.73;26.76;98145.53;5030087;28;20476;-72
2022/08/26 11:17:43;;;;;;;16.60;3.03;;;;;;;32.60;27.13;98141.50;4996866;28;20037;-73
2022/08/26 11:20:21;;;;;;;16.75;2.97;;;;;;;32.52;27.32;98142.09;5029911;28;20116;-71
2022/08/26 11:22:51;;;;;;;17.63;3.28;;;;;;;32.51;27.34;98147.75;5030271;28;20124;-72
2022/08/26 11:25:26;;;;;;;12.88;2.88;;;;;;;32.48;27.47;98132.91;4981477;28;20083;-73
2022/08/26 11:27:58;;;;;;;19.77;3.47;;;;;;;32.47;27.71;98140.22;4998321;28;20120;-73
2022/08/26 11:30:24;;;;;;;12.60;3.22;;;;;;;32.50;27.58;98133.47;4980771;28;20045;-73
2022/08/26 11:32:54;;;;;;;11.07;2.90;;;;;;;32.54;27.67;98131.81;5029615;28;20128;-72
2022/08/26 11:35:20;;;;;;;13.65;2.83;;;;;;;32.60;27.73;98119.91;4980830;28;20489;-72
2022/08/26 11:38:30;;;;;;;16.13;3.15;;;;;;;32.67;27.42;98116.91;5029760;28;20096;-73
2022/08/26 11:41:04;;;;;;;15.10;3.22;;;;;;;32.75;27.48;98123.66;4983703;28;20036;-73